Time;durP1;ratioP1;P1;durP2;ratioP2;P2;SDS_P1;SDS_P2;PMS_P1;PMS_P2;Temp;Humidity;BMP_temperature;BMP_pressure;BME280_temperature;BME280_humidity;BME280_pressure;Samples;Min_cycle;Max_cycle;Signal;HPM_P1;HPM_P2
2022/07/06 00:01:40;;;;;;;4.38;1.90;;;13.50;99.90;;;;;;5021462;28;20104;-86
2022/07/06 00:04:06;;;;;;;2.30;2.10;;;13.50;99.90;;;;;;5039831;28;20111;-88
2022/07/06 00:06:32;;;;;;;3.00;1.92;;;13.50;99.90;;;;;;5031554;28;20051;-88
2022/07/06 00:08:58;;;;;;;4.93;2.28;;;13.40;99.90;;;;;;5045027;28;20037;-88
2022/07/06 00:11:24;;;;;;;5.18;2.13;;;13.40;99.90;;;;;;5033361;28;20033;-88
2022/07/06 00:13:51;;;;;;;3.53;1.90;;;13.40;99.90;;;;;;5018811;28;20563;-88
2022/07/06 00:16:17;;;;;;;8.27;2.33;;;13.40;99.90;;;;;;5033641;28;20033;-88
2022/07/06 00:18:43;;;;;;;4.38;1.80;;;13.40;99.90;;;;;;5020234;28;20060;-86
2022/07/06 00:21:09;;;;;;;4.13;2.08;;;13.40;99.90;;;;;;5032640;28;20478;-86
2022/07/06 00:26:02;;;;;;;6.15;2.38;;;13.40;99.90;;;;;;5043397;23;20411;-28
2022/07/06 00:28:28;;;;;;;5.13;1.90;;;13.50;99.90;;;;;;5050359;28;20085;-28
2022/07/06 00:30:54;;;;;;;2.80;1.88;;;13.50;99.90;;;;;;5032587;28;20385;-28
2022/07/06 00:33:20;;;;;;;3.47;1.75;;;13.50;99.90;;;;;;5049487;28;20036;-26
2022/07/06 00:35:46;;;;;;;6.15;2.13;;;13.60;99.90;;;;;;5054062;28;20037;-28
2022/07/06 00:38:12;;;;;;;4.13;1.70;;;13.60;99.90;;;;;;5052337;28;20090;-27
2022/07/06 00:40:37;;;;;;;3.15;1.88;;;13.70;99.90;;;;;;5054018;28;20131;-28
2022/07/06 00:43:03;;;;;;;6.43;2.33;;;13.70;99.90;;;;;;5053946;28;20124;-27
2022/07/06 00:45:29;;;;;;;5.28;2.25;;;13.70;99.90;;;;;;5053500;28;20052;-28
2022/07/06 00:47:55;;;;;;;4.60;1.63;;;13.80;99.90;;;;;;5052419;28;20051;-27
2022/07/06 00:50:21;;;;;;;2.58;1.80;;;13.80;99.90;;;;;;5053794;28;20103;-27
2022/07/06 00:52:56;;;;;;;2.55;1.70;;;13.80;99.90;;;;;;5036313;28;20063;-28
2022/07/06 00:55:29;;;;;;;4.28;2.10;;;13.80;99.90;;;;;;5033660;28;20041;-28
2022/07/06 00:57:55;;;;;;;2.88;1.85;;;13.80;99.90;;;;;;5033767;28;20038;-28
2022/07/06 01:00:26;;;;;;;7.43;2.15;;;13.80;99.90;;;;;;5032436;28;20033;-28
2022/07/06 01:02:55;;;;;;;3.28;2.03;;;13.90;99.90;;;;;;5033586;28;20549;-28
2022/07/06 01:05:22;;;;;;;2.33;2.13;;;13.90;99.90;;;;;;5033501;28;20045;-28
2022/07/06 01:07:52;;;;;;;3.03;1.80;;;13.80;99.90;;;;;;5033307;28;20038;-27
2022/07/06 01:10:23;;;;;;;5.53;2.00;;;13.80;99.90;;;;;;5045494;28;20048;-28
2022/07/06 01:12:52;;;;;;;2.83;1.58;;;13.90;99.90;;;;;;5051995;28;20037;-27
2022/07/06 01:15:23;;;;;;;4.30;1.98;;;13.80;99.90;;;;;;5051976;28;20044;-27
2022/07/06 01:17:49;;;;;;;5.07;1.95;;;13.80;99.90;;;;;;5052992;28;20423;-26
2022/07/06 01:20:18;;;;;;;4.00;1.83;;;13.80;99.90;;;;;;5051868;28;20048;-28
2022/07/06 01:22:46;;;;;;;4.80;2.08;;;13.80;99.90;;;;;;5053212;28;20033;-27
2022/07/06 01:25:12;;;;;;;2.67;1.73;;;13.80;99.90;;;;;;5034930;28;20112;-27
2022/07/06 01:27:40;;;;;;;3.65;1.88;;;13.90;99.90;;;;;;5053032;28;20501;-28
2022/07/06 01:30:14;;;;;;;5.15;1.92;;;13.90;99.90;;;;;;5053029;28;20040;-28
2022/07/06 01:32:41;;;;;;;3.85;2.10;;;13.90;99.90;;;;;;5053073;28;20411;-27
2022/07/06 01:35:10;;;;;;;5.28;2.42;;;13.90;99.90;;;;;;5052824;28;20044;-26
2022/07/06 01:37:36;;;;;;;4.05;2.13;;;13.90;99.90;;;;;;5051369;28;20123;-28
2022/07/06 01:40:08;;;;;;;4.72;2.10;;;13.90;99.90;;;;;;5052166;28;20045;-31
2022/07/06 01:42:34;;;;;;;5.03;2.20;;;13.90;99.90;;;;;;5040453;28;20045;-30
2022/07/06 01:45:01;;;;;;;3.60;1.92;;;13.90;99.90;;;;;;5048262;28;20048;-31
2022/07/06 01:47:29;;;;;;;3.33;2.30;;;13.90;99.90;;;;;;5046015;28;20041;-32
2022/07/06 01:49:59;;;;;;;2.95;1.75;;;13.90;99.90;;;;;;5051341;28;20109;-31
2022/07/06 01:52:28;;;;;;;3.38;2.30;;;13.90;99.90;;;;;;5044189;28;20106;-30
2022/07/06 01:54:56;;;;;;;4.93;2.60;;;13.90;99.90;;;;;;5046200;28;20492;-31
2022/07/06 01:57:21;;;;;;;3.00;2.35;;;13.90;99.90;;;;;;5044292;28;20037;-27
2022/07/06 01:59:47;;;;;;;5.35;2.25;;;13.80;99.90;;;;;;5046077;28;20044;-30
2022/07/06 02:02:13;;;;;;;4.68;2.20;;;13.80;99.90;;;;;;5019406;28;20474;-27
2022/07/06 02:04:39;;;;;;;3.53;2.67;;;13.90;99.90;;;;;;5045616;28;20504;-32
2022/07/06 02:07:04;;;;;;;2.83;2.15;;;13.90;99.90;;;;;;5049867;28;20033;-29
2022/07/06 02:09:30;;;;;;;3.97;2.35;;;13.80;99.90;;;;;;5041582;28;20541;-31
2022/07/06 02:11:56;;;;;;;3.58;2.35;;;13.80;99.90;;;;;;5049227;28;20064;-30
2022/07/06 02:14:21;;;;;;;5.07;2.45;;;13.80;99.90;;;;;;5050863;28;20039;-31
2022/07/06 02:16:50;;;;;;;3.65;2.30;;;13.80;99.90;;;;;;5050764;28;20159;-28
2022/07/06 02:19:18;;;;;;;3.75;2.30;;;13.80;99.90;;;;;;5035598;28;20120;-32
2022/07/06 02:21:44;;;;;;;2.88;2.13;;;13.90;99.90;;;;;;5048389;28;20056;-29
2022/07/06 02:24:10;;;;;;;3.53;2.58;;;13.80;99.90;;;;;;5049212;28;20806;-31
2022/07/06 02:26:35;;;;;;;5.45;2.70;;;13.80;99.90;;;;;;5048673;28;20045;-31
2022/07/06 02:29:01;;;;;;;5.95;2.63;;;13.80;99.90;;;;;;5042168;28;20033;-29
2022/07/06 02:31:27;;;;;;;6.63;2.80;;;13.80;99.90;;;;;;5044048;28;20037;-31
2022/07/06 02:33:52;;;;;;;8.05;2.60;;;13.80;99.90;;;;;;5029654;28;20095;-32
2022/07/06 02:36:18;;;;;;;2.80;2.47;;;13.80;99.90;;;;;;5050875;28;20069;-34
2022/07/06 02:38:43;;;;;;;7.03;2.65;;;13.80;99.90;;;;;;5047598;28;20067;-32
2022/07/06 02:41:09;;;;;;;3.72;2.60;;;13.80;99.90;;;;;;5047792;28;20045;-31
2022/07/06 02:43:38;;;;;;;7.03;2.70;;;13.80;99.90;;;;;;5050458;28;20041;-34
2022/07/06 02:46:03;;;;;;;5.40;2.50;;;13.90;99.90;;;;;;5045787;28;20042;-31
2022/07/06 02:48:29;;;;;;;4.93;2.42;;;13.80;99.90;;;;;;5044358;28;20037;-32
2022/07/06 02:50:55;;;;;;;4.95;2.90;;;13.80;99.90;;;;;;5049197;28;20087;-31
2022/07/06 02:53:20;;;;;;;6.07;2.40;;;13.80;99.90;;;;;;5048882;28;20120;-31
2022/07/06 02:55:46;;;;;;;2.72;2.45;;;13.80;99.90;;;;;;5047895;28;20044;-30
2022/07/06 02:58:12;;;;;;;5.65;2.28;;;13.70;99.90;;;;;;5049229;28;20537;-30
2022/07/06 03:00:37;;;;;;;7.15;3.22;;;13.70;99.90;;;;;;5049902;28;20636;-33
2022/07/06 03:03:03;;;;;;;3.10;2.70;;;13.70;99.90;;;;;;5041170;28;20372;-31
2022/07/06 03:05:29;;;;;;;5.28;2.50;;;13.80;99.90;;;;;;5043324;28;20049;-33
2022/07/06 03:07:54;;;;;;;5.57;2.53;;;13.80;99.90;;;;;;5047786;28;20033;-31
2022/07/06 03:10:20;;;;;;;4.10;2.55;;;13.80;99.90;;;;;;5046849;28;20040;-32
2022/07/06 03:12:46;;;;;;;4.15;2.40;;;13.70;99.90;;;;;;5047763;28;20240;-31
2022/07/06 03:15:12;;;;;;;4.32;2.60;;;13.70;99.90;;;;;;5048996;28;20052;-30
2022/07/06 03:17:38;;;;;;;6.63;2.75;;;13.70;99.90;;;;;;5042576;28;20044;-32
2022/07/06 03:20:07;;;;;;;4.75;3.28;;;13.80;99.90;;;;;;5048310;28;20436;-29
2022/07/06 03:22:33;;;;;;;6.82;3.15;;;13.70;99.90;;;;;;5049666;28;20122;-30
2022/07/06 03:24:58;;;;;;;4.50;2.60;;;13.70;99.90;;;;;;5040127;28;20036;-31
2022/07/06 03:27:24;;;;;;;6.75;3.00;;;13.80;99.90;;;;;;5049526;28;20045;-31
2022/07/06 03:29:50;;;;;;;4.68;2.55;;;13.80;99.90;;;;;;5039542;28;20041;-32
2022/07/06 03:32:16;;;;;;;4.63;2.50;;;13.70;99.90;;;;;;5039086;28;20104;-30
2022/07/06 03:34:41;;;;;;;2.72;2.35;;;13.70;99.90;;;;;;5048067;28;20040;-29
2022/07/06 03:37:07;;;;;;;4.18;2.80;;;13.80;99.90;;;;;;5046936;28;20452;-30
2022/07/06 03:39:33;;;;;;;4.50;2.42;;;13.80;99.90;;;;;;5043892;28;20037;-30
2022/07/06 03:41:59;;;;;;;4.45;2.80;;;13.80;99.90;;;;;;5049530;28;20123;-31
2022/07/06 03:44:25;;;;;;;8.15;3.05;;;13.80;99.90;;;;;;5046792;28;20335;-31
2022/07/06 03:46:52;;;;;;;4.97;2.10;;;13.80;99.90;;;;;;5045852;28;20069;-31
2022/07/06 03:49:18;;;;;;;5.18;1.95;;;13.80;99.90;;;;;;5047771;28;20115;-33
2022/07/06 03:51:44;;;;;;;3.20;1.90;;;13.80;99.90;;;;;;5049092;28;20711;-32
2022/07/06 03:54:09;;;;;;;2.75;2.30;;;13.90;99.90;;;;;;5049005;28;20041;-32
2022/07/06 03:56:38;;;;;;;2.33;1.80;;;13.80;99.90;;;;;;5047380;28;20039;-32
2022/07/06 03:59:04;;;;;;;5.80;2.40;;;13.80;99.90;;;;;;5040948;28;20400;-33
2022/07/06 04:01:30;;;;;;;5.75;2.90;;;13.80;99.90;;;;;;5040862;28;20044;-33
2022/07/06 04:03:55;;;;;;;3.60;2.42;;;13.80;99.90;;;;;;5044896;28;20041;-31
2022/07/06 04:06:21;;;;;;;5.60;2.60;;;13.90;99.90;;;;;;5047975;28;20064;-34
2022/07/06 04:08:47;;;;;;;4.00;2.42;;;13.90;99.90;;;;;;5047552;28;20037;-32
2022/07/06 04:11:13;;;;;;;4.00;2.47;;;14.00;99.90;;;;;;5049737;28;20052;-31
2022/07/06 04:13:38;;;;;;;3.17;2.50;;;14.00;99.90;;;;;;5045775;28;20032;-31
2022/07/06 04:16:05;;;;;;;6.15;2.30;;;14.00;99.90;;;;;;5046927;28;20048;-31
2022/07/06 04:18:31;;;;;;;3.10;2.20;;;14.10;99.90;;;;;;5051040;28;20033;-32
2022/07/06 04:21:00;;;;;;;3.78;2.47;;;14.10;99.90;;;;;;5052959;28;20131;-30
2022/07/06 04:23:26;;;;;;;4.35;2.38;;;14.10;99.90;;;;;;5052145;28;20095;-31
2022/07/06 04:25:51;;;;;;;5.00;2.33;;;14.10;99.90;;;;;;5050744;28;20487;-32
2022/07/06 04:28:17;;;;;;;5.10;2.38;;;14.20;99.90;;;;;;5048720;28;20037;-30
2022/07/06 04:30:43;;;;;;;4.63;2.10;;;14.20;99.90;;;;;;5040850;28;20491;-30
2022/07/06 04:33:09;;;;;;;4.22;2.35;;;14.20;99.90;;;;;;5043257;28;20064;-31
2022/07/06 04:35:34;;;;;;;3.25;2.10;;;14.30;99.90;;;;;;5050639;28;20029;-33
2022/07/06 04:38:00;;;;;;;4.13;2.70;;;14.30;99.90;;;;;;5052393;28;20029;-31
2022/07/06 04:40:26;;;;;;;4.40;2.00;;;14.30;99.90;;;;;;5030182;28;20086;-33
2022/07/06 04:42:52;;;;;;;4.65;2.00;;;14.30;99.90;;;;;;5048620;28;20794;-32
2022/07/06 04:45:18;;;;;;;3.75;2.00;;;14.40;99.90;;;;;;5044226;28;20038;-32
2022/07/06 04:47:44;;;;;;;3.65;1.80;;;14.40;99.90;;;;;;5047015;28;20040;-32
2022/07/06 04:50:10;;;;;;;6.60;2.55;;;14.50;99.90;;;;;;5052106;28;20515;-31
2022/07/06 04:52:36;;;;;;;7.35;2.45;;;14.60;99.90;;;;;;5022795;28;20038;-33
2022/07/06 04:55:04;;;;;;;4.10;1.88;;;14.60;99.90;;;;;;5046353;28;20377;-30
2022/07/06 04:57:29;;;;;;;5.15;2.20;;;14.70;99.90;;;;;;5046121;28;20111;-32
2022/07/06 04:59:56;;;;;;;3.35;1.55;;;14.70;99.90;;;;;;5048110;28;20041;-32
2022/07/06 05:02:22;;;;;;;5.07;2.10;;;14.70;99.90;;;;;;5051206;28;20391;-30
2022/07/06 05:04:47;;;;;;;2.70;2.00;;;14.70;99.90;;;;;;5049464;28;20123;-29
2022/07/06 05:07:13;;;;;;;7.05;2.00;;;14.70;99.90;;;;;;5053413;28;20338;-27
2022/07/06 05:09:39;;;;;;;4.22;2.00;;;14.70;99.90;;;;;;5050392;28;20041;-31
2022/07/06 05:12:05;;;;;;;1.90;1.60;;;14.80;99.90;;;;;;5036846;28;20042;-27
2022/07/06 05:14:30;;;;;;;3.70;1.80;;;14.80;99.90;;;;;;5033372;28;20095;-27
2022/07/06 05:16:56;;;;;;;5.75;1.90;;;14.90;99.90;;;;;;5032813;28;20045;-28
2022/07/06 05:19:22;;;;;;;2.80;1.42;;;15.00;99.90;;;;;;5032342;28;20037;-28
2022/07/06 05:21:47;;;;;;;7.05;1.75;;;14.90;99.90;;;;;;5053095;28;20049;-26
2022/07/06 05:24:13;;;;;;;3.05;2.17;;;14.90;99.90;;;;;;5053366;28;20170;-27
2022/07/06 05:26:39;;;;;;;2.75;1.67;;;15.00;99.90;;;;;;5052515;28;20037;-27
2022/07/06 05:29:04;;;;;;;4.05;1.50;;;15.00;99.90;;;;;;5052718;28;20496;-31
2022/07/06 05:31:30;;;;;;;4.82;1.65;;;15.00;99.90;;;;;;5049921;28;20045;-30
2022/07/06 05:33:56;;;;;;;3.28;1.70;;;15.00;99.90;;;;;;5051082;28;20399;-30
2022/07/06 05:36:22;;;;;;;3.83;1.40;;;15.00;99.90;;;;;;5040639;28;20072;-32
2022/07/06 05:38:47;;;;;;;4.90;2.17;;;15.10;99.90;;;;;;5040627;28;20581;-32
2022/07/06 05:41:13;;;;;;;3.80;1.80;;;15.10;99.90;;;;;;5043276;28;20045;-32
2022/07/06 05:43:39;;;;;;;5.60;1.40;;;15.20;99.90;;;;;;5046897;28;20086;-29
2022/07/06 05:46:05;;;;;;;4.53;1.23;;;15.30;99.90;;;;;;5052898;28;20033;-28
2022/07/06 05:51:15;;;;;;;3.35;1.30;;;15.60;99.90;;;;;;5051222;28;20037;-27
2022/07/06 05:53:41;;;;;;;6.60;1.58;;;15.70;99.90;;;;;;5050775;28;20514;-28
2022/07/06 05:56:06;;;;;;;2.97;1.38;;;15.80;99.90;;;;;;5051097;28;20213;-28
2022/07/06 05:58:32;;;;;;;4.30;1.30;;;16.00;99.90;;;;;;5051097;28;20079;-28
2022/07/06 06:00:58;;;;;;;2.47;0.93;;;16.20;99.90;;;;;;5050671;28;20043;-29
2022/07/06 06:40:12;;;;;;;3.72;0.80;;;16.70;99.90;;;;;;5084762;23;20052;-87
2022/07/06 06:42:38;;;;;;;3.97;1.00;;;16.80;99.90;;;;;;5057125;28;20036;-86
2022/07/06 06:45:05;;;;;;;2.78;0.82;;;16.80;99.90;;;;;;5061305;28;20039;-86
2022/07/06 06:47:31;;;;;;;3.20;0.80;;;16.90;99.90;;;;;;5062685;28;20040;-89
2022/07/06 06:49:56;;;;;;;2.63;1.10;;;16.90;99.90;;;;;;5048572;28;20052;-86
2022/07/06 06:52:22;;;;;;;3.17;0.88;;;16.90;99.90;;;;;;5068107;28;20036;-88
2022/07/06 06:54:47;;;;;;;2.30;0.75;;;16.90;99.90;;;;;;5059920;28;20028;-89
2022/07/06 06:57:13;;;;;;;2.78;0.73;;;17.00;99.90;;;;;;5048960;28;20082;-88
2022/07/06 06:59:38;;;;;;;4.32;0.80;;;17.00;99.90;;;;;;5062344;28;20044;-89
2022/07/06 07:02:04;;;;;;;2.83;0.70;;;17.00;99.90;;;;;;5042889;28;20048;-87
2022/07/06 07:04:30;;;;;;;2.72;0.80;;;17.10;99.90;;;;;;5067993;28;20063;-88
2022/07/06 07:06:56;;;;;;;2.38;0.70;;;17.20;99.90;;;;;;5058788;28;20040;-88
2022/07/06 07:09:22;;;;;;;2.50;0.85;;;17.20;99.90;;;;;;5059725;28;20386;-88
2022/07/06 07:11:49;;;;;;;3.10;1.00;;;17.30;99.90;;;;;;5061480;28;20041;-86
2022/07/06 07:14:15;;;;;;;4.25;0.88;;;17.40;99.90;;;;;;5047034;28;20143;-87
2022/07/06 07:16:41;;;;;;;2.78;1.00;;;17.40;99.90;;;;;;5056744;28;20560;-87
2022/07/06 07:19:06;;;;;;;1.90;0.70;;;17.40;99.90;;;;;;5067104;28;20114;-89
2022/07/06 07:21:32;;;;;;;4.97;0.90;;;17.50;99.90;;;;;;5064323;28;20068;-88
2022/07/06 07:23:58;;;;;;;2.65;0.82;;;17.60;99.90;;;;;;5060861;28;20436;-86
2022/07/06 07:26:23;;;;;;;3.63;0.80;;;17.70;99.90;;;;;;5079767;28;20109;-88
2022/07/06 07:28:49;;;;;;;2.42;0.60;;;17.90;99.90;;;;;;5073905;28;20175;-86
2022/07/06 07:31:14;;;;;;;3.33;1.10;;;18.00;99.90;;;;;;5077249;28;20042;-87
2022/07/06 07:33:40;;;;;;;2.80;0.90;;;18.00;99.90;;;;;;5065854;28;20073;-88
2022/07/06 07:36:06;;;;;;;2.08;0.90;;;18.00;99.90;;;;;;5065781;28;20096;-87
2022/07/06 07:38:31;;;;;;;3.58;0.88;;;18.00;99.90;;;;;;5074893;28;20047;-89
2022/07/06 07:40:57;;;;;;;4.40;0.80;;;18.20;99.90;;;;;;5051458;28;20115;-88
2022/07/06 07:43:23;;;;;;;2.55;0.82;;;18.10;99.90;;;;;;5071344;28;20044;-90
2022/07/06 07:45:49;;;;;;;4.63;0.80;;;18.20;99.90;;;;;;5071014;28;20056;-89
2022/07/06 07:48:15;;;;;;;1.85;0.88;;;18.30;99.90;;;;;;5065735;28;20040;-88
2022/07/06 07:50:41;;;;;;;4.15;1.10;;;18.30;99.90;;;;;;5056852;28;20060;-87
2022/07/06 07:53:07;;;;;;;1.23;0.80;;;18.20;99.90;;;;;;5071721;28;20076;-86
2022/07/06 07:55:32;;;;;;;2.15;0.70;;;18.10;99.90;;;;;;5070860;28;20156;-88
2022/07/06 07:57:58;;;;;;;2.83;1.00;;;17.90;99.90;;;;;;5059744;28;20265;-88
2022/07/06 08:00:24;;;;;;;2.08;0.70;;;17.70;99.90;;;;;;5063252;28;20087;-91
2022/07/06 08:02:50;;;;;;;2.67;0.90;;;17.70;99.90;;;;;;5055573;28;20033;-87
2022/07/06 08:05:15;;;;;;;3.50;0.90;;;17.80;99.90;;;;;;5066728;28;20040;-86
2022/07/06 08:07:42;;;;;;;4.28;0.90;;;18.10;99.90;;;;;;5073019;28;20028;-86
2022/07/06 08:10:09;;;;;;;1.48;0.70;;;18.30;99.90;;;;;;5071092;28;20048;-89
2022/07/06 08:12:35;;;;;;;3.15;0.85;;;18.40;99.90;;;;;;5051428;28;20044;-87
2022/07/06 08:15:01;;;;;;;1.70;1.00;;;18.60;99.90;;;;;;5069615;28;20028;-86
2022/07/06 08:32:52;;;;;;;2.78;0.77;;;19.60;95.60;;;;;;5067006;28;20078;-88
2022/07/06 08:35:41;;;;;;;1.58;0.75;;;19.60;94.40;;;;;;5064830;28;20027;-87
2022/07/06 08:38:31;;;;;;;2.22;0.63;;;19.50;97.60;;;;;;5040488;28;20086;-87
2022/07/06 08:41:24;;;;;;;1.60;0.70;;;19.50;91.40;;;;;;5052053;28;20108;-86
2022/07/06 11:26:23;;;;;;;2.00;0.50;;;23.50;52.40;;;;;;3369364;26;20257;-30
2022/07/06 11:28:51;;;;;;;2.55;0.52;;;23.30;53.70;;;;;;5050740;28;20083;-30
2022/07/06 11:31:17;;;;;;;2.40;0.70;;;23.10;54.90;;;;;;5048492;28;20041;-29
2022/07/06 11:33:46;;;;;;;2.58;0.80;;;23.00;54.10;;;;;;5041221;28;20037;-29
2022/07/06 11:36:22;;;;;;;1.40;0.57;;;22.60;53.70;;;;;;5049517;28;20116;-29
2022/07/06 11:38:49;;;;;;;1.27;0.65;;;22.50;54.00;;;;;;5050573;28;20041;-29
2022/07/06 11:41:16;;;;;;;1.58;0.52;;;22.60;54.50;;;;;;5047706;28;20036;-30
2022/07/06 11:43:45;;;;;;;2.38;0.82;;;22.70;54.70;;;;;;5045973;28;20061;-29
2022/07/06 11:46:29;;;;;;;2.28;0.98;;;23.10;56.10;;;;;;5047918;28;20403;-29
2022/07/06 11:49:08;;;;;;;1.85;0.85;;;23.10;53.80;;;;;;5031430;28;20079;-29
2022/07/06 11:51:37;;;;;;;1.30;0.57;;;23.00;53.70;;;;;;5041241;28;20080;-29
2022/07/06 11:54:14;;;;;;;0.70;0.43;;;22.90;53.90;;;;;;5041700;28;20056;-29
2022/07/06 11:56:54;;;;;;;2.50;0.70;;;22.80;54.60;;;;;;5045617;28;20128;-29
2022/07/06 11:59:24;;;;;;;3.20;0.70;;;23.30;55.90;;;;;;5053609;28;20312;-29
2022/07/06 12:02:00;;;;;;;2.22;0.60;;;23.70;53.90;;;;;;5038906;28;20038;-29
2022/07/06 12:04:26;;;;;;;1.90;0.55;;;23.80;52.30;;;;;;5045660;28;20115;-29
2022/07/06 12:06:55;;;;;;;2.20;0.80;;;23.90;51.80;;;;;;5039194;28;20104;-29
2022/07/06 12:09:23;;;;;;;1.88;0.50;;;23.80;52.30;;;;;;5043148;28;20076;-29
2022/07/06 12:11:49;;;;;;;1.95;0.68;;;23.70;52.10;;;;;;5043859;28;20072;-29
2022/07/06 12:14:18;;;;;;;3.03;0.60;;;23.50;52.60;;;;;;5043537;28;20041;-29
2022/07/06 12:16:44;;;;;;;2.35;0.75;;;23.10;53.60;;;;;;5029926;28;20064;-29
2022/07/06 12:19:11;;;;;;;3.03;0.70;;;22.90;54.50;;;;;;5053131;28;20051;-29
2022/07/06 12:21:43;;;;;;;2.35;0.60;;;22.90;55.60;;;;;;5044295;28;20072;-29
2022/07/06 12:24:09;;;;;;;3.83;0.75;;;23.00;55.70;;;;;;5041149;28;20049;-29
2022/07/06 12:26:41;;;;;;;1.98;0.65;;;23.10;55.30;;;;;;5052146;28;20095;-29
2022/07/06 12:29:13;;;;;;;0.82;0.45;;;23.10;55.10;;;;;;5031588;28;20044;-29
2022/07/06 12:31:53;;;;;;;3.17;0.82;;;23.50;57.10;;;;;;5046008;28;20045;-29
2022/07/06 12:34:27;;;;;;;3.10;0.50;;;23.70;55.00;;;;;;5046566;28;20130;-29
2022/07/06 12:36:55;;;;;;;3.25;0.65;;;23.60;54.50;;;;;;5048372;28;20032;-29
2022/07/06 12:39:26;;;;;;;2.88;0.93;;;23.50;54.50;;;;;;5047268;28;20051;-29
2022/07/06 12:42:00;;;;;;;1.95;0.70;;;23.40;54.10;;;;;;5042849;28;20045;-29
2022/07/06 12:44:26;;;;;;;2.45;0.70;;;23.30;53.70;;;;;;5043925;28;20037;-29
2022/07/06 12:47:09;;;;;;;0.88;0.50;;;23.60;54.10;;;;;;5058137;28;20419;-29
2022/07/06 12:49:36;;;;;;;2.78;0.60;;;24.20;53.40;;;;;;5034397;28;20037;-29
2022/07/06 12:52:14;;;;;;;1.52;0.80;;;24.60;53.20;;;;;;5041630;28;20037;-29
2022/07/06 12:54:47;;;;;;;2.92;0.57;;;24.50;50.40;;;;;;5044821;28;20048;-29
2022/07/06 12:57:25;;;;;;;1.05;0.52;;;24.20;51.20;;;;;;5062615;28;20098;-29
2022/07/06 12:59:54;;;;;;;1.08;0.50;;;23.90;51.90;;;;;;5040373;28;20119;-29
2022/07/06 13:02:32;;;;;;;2.83;0.70;;;23.80;52.40;;;;;;5041174;28;20049;-29
2022/07/06 13:04:58;;;;;;;1.13;0.75;;;24.10;52.80;;;;;;5042837;28;20072;-29
2022/07/06 13:07:25;;;;;;;2.63;0.80;;;24.20;52.40;;;;;;5042515;28;20190;-29
2022/07/06 13:09:51;;;;;;;1.25;0.77;;;24.00;51.70;;;;;;5039829;28;20411;-29
2022/07/06 13:12:16;;;;;;;1.50;0.90;;;24.00;51.60;;;;;;5048979;28;20025;-26
2022/07/06 13:14:42;;;;;;;2.20;0.70;;;24.20;52.00;;;;;;5038508;28;20040;-27
2022/07/06 13:17:08;;;;;;;1.63;0.70;;;24.50;51.30;;;;;;5046005;28;20029;-27
2022/07/06 13:19:33;;;;;;;2.25;0.90;;;24.60;50.90;;;;;;5046873;28;20043;-27
2022/07/06 13:21:59;;;;;;;2.58;0.70;;;24.40;50.10;;;;;;5034454;28;20099;-27
2022/07/06 13:24:27;;;;;;;1.73;0.68;;;24.20;50.60;;;;;;5052797;28;20492;-27
2022/07/06 13:26:53;;;;;;;1.80;0.70;;;24.30;51.20;;;;;;5052345;28;20495;-26
2022/07/06 13:29:19;;;;;;;1.88;0.70;;;24.20;50.40;;;;;;5048426;28;20044;-26
2022/07/06 13:31:45;;;;;;;1.73;0.70;;;24.20;49.60;;;;;;5066029;28;20090;-27
2022/07/06 13:34:13;;;;;;;1.80;0.82;;;24.40;50.10;;;;;;5052551;28;20127;-29
2022/07/06 13:36:39;;;;;;;1.38;0.77;;;24.50;49.90;;;;;;5050960;28;20043;-29
2022/07/06 13:39:05;;;;;;;1.02;0.70;;;24.30;48.70;;;;;;5051827;28;20626;-29
2022/07/06 13:41:31;;;;;;;1.80;0.70;;;24.30;48.80;;;;;;5051389;28;20100;-29
2022/07/06 13:43:58;;;;;;;1.33;0.57;;;24.50;49.00;;;;;;5051256;28;20068;-29
2022/07/06 13:46:27;;;;;;;3.15;0.80;;;24.20;48.80;;;;;;5048561;28;20561;-29
2022/07/06 13:48:53;;;;;;;1.75;0.82;;;23.90;49.60;;;;;;5032531;28;20381;-29
2022/07/06 13:51:19;;;;;;;1.55;0.60;;;23.80;49.10;;;;;;5049285;28;20279;-29
2022/07/06 13:53:45;;;;;;;2.53;0.77;;;23.50;49.40;;;;;;5043249;28;20052;-29
2022/07/06 13:56:11;;;;;;;1.00;0.65;;;23.30;50.60;;;;;;5046681;28;20048;-29
2022/07/06 13:58:37;;;;;;;4.63;0.80;;;23.10;52.10;;;;;;5052512;28;20430;-29
2022/07/06 14:01:04;;;;;;;2.55;1.00;;;22.80;52.40;;;;;;5051386;28;20040;-31
2022/07/06 14:03:30;;;;;;;1.83;0.73;;;22.90;52.70;;;;;;5049211;28;20047;-31
2022/07/06 14:06:00;;;;;;;0.95;0.70;;;22.80;52.80;;;;;;5050332;28;20075;-30
2022/07/06 14:08:27;;;;;;;0.98;0.60;;;22.80;52.50;;;;;;5043609;28;20049;-31
2022/07/06 14:10:54;;;;;;;1.50;0.65;;;22.80;53.00;;;;;;5028417;28;20037;-31
2022/07/06 14:13:20;;;;;;;2.47;0.55;;;23.00;52.90;;;;;;5049492;28;20060;-31
2022/07/06 14:15:47;;;;;;;2.92;0.70;;;23.00;53.30;;;;;;5050120;28;20064;-31
2022/07/06 14:18:14;;;;;;;1.02;0.93;;;23.00;52.90;;;;;;5050782;28;20025;-31
2022/07/06 14:20:40;;;;;;;1.98;0.90;;;22.70;52.30;;;;;;5051736;28;20458;-30
2022/07/06 14:23:06;;;;;;;1.85;0.70;;;22.50;52.20;;;;;;5049274;28;20079;-30
2022/07/06 14:25:32;;;;;;;3.42;0.85;;;22.30;52.30;;;;;;5044041;28;20064;-30
2022/07/06 14:27:59;;;;;;;2.90;0.70;;;22.20;52.90;;;;;;5050169;28;20499;-30
2022/07/06 14:30:25;;;;;;;1.25;0.70;;;22.10;53.40;;;;;;5038728;28;20044;-30
2022/07/06 14:32:50;;;;;;;1.08;0.50;;;21.90;53.20;;;;;;5050483;28;20052;-30
2022/07/06 14:35:16;;;;;;;1.17;0.65;;;21.80;52.80;;;;;;5050394;28;20111;-30
2022/07/06 14:37:42;;;;;;;2.88;1.00;;;21.70;52.90;;;;;;5052069;28;20044;-30
2022/07/06 14:40:08;;;;;;;1.48;0.90;;;21.70;52.70;;;;;;5049519;28;20511;-30
2022/07/06 14:42:34;;;;;;;2.83;0.80;;;21.70;52.90;;;;;;5067559;28;20045;-30
2022/07/06 14:45:00;;;;;;;1.90;0.90;;;21.50;52.90;;;;;;5050501;28;20174;-30
2022/07/06 14:47:29;;;;;;;2.15;0.93;;;21.50;54.40;;;;;;5051971;28;20045;-30
2022/07/06 14:49:55;;;;;;;2.47;0.80;;;21.30;54.60;;;;;;5093615;23;20200;-84
2022/07/06 14:52:44;;;;;;;1.98;0.93;;;21.10;55.10;;;;;;5017150;28;20487;-84
2022/07/06 14:55:10;;;;;;;1.63;1.08;;;21.00;56.20;;;;;;5021195;28;20045;-83
2022/07/06 14:57:36;;;;;;;3.13;0.90;;;21.00;56.30;;;;;;5015952;28;20037;-84
2022/07/06 15:00:07;;;;;;;2.55;1.15;;;21.00;56.70;;;;;;5019023;28;20037;-83
2022/07/06 15:02:59;;;;;;;1.52;1.05;;;21.00;57.50;;;;;;5012833;28;20118;-86
2022/07/06 15:06:24;;;;;;;;;;;;;;;;;;;;;
2022/07/06 15:09:52;;;;;;;4.18;1.20;;;20.50;58.30;;;;;;5017201;28;20052;-88
2022/07/06 15:16:24;;;;;;;2.70;1.05;;;20.40;62.20;;;;;;5008570;28;20121;-87
2022/07/06 15:19:14;;;;;;;;;;;;;;;;;;;;;
2022/07/06 15:30:25;;;;;;;3.10;1.23;;;20.40;64.80;;;;;;5045180;28;20037;-30
2022/07/06 15:32:50;;;;;;;4.80;1.20;;;20.50;63.40;;;;;;5047516;28;20501;-31
2022/07/06 15:35:16;;;;;;;1.00;0.73;;;20.40;64.60;;;;;;5042908;28;20032;-30
2022/07/06 15:37:42;;;;;;;1.70;1.30;;;20.40;64.90;;;;;;5023005;28;20108;-30
2022/07/06 15:40:12;;;;;;;4.10;1.20;;;20.40;65.30;;;;;;5019713;28;20496;-35
2022/07/06 15:42:39;;;;;;;2.72;1.30;;;20.40;66.10;;;;;;5022430;28;20054;-29
2022/07/06 15:45:06;;;;;;;4.15;1.23;;;20.30;67.00;;;;;;5007290;28;20041;-30
2022/07/06 15:47:32;;;;;;;3.20;1.50;;;20.30;66.70;;;;;;5011767;28;20119;-31
2022/07/06 15:49:58;;;;;;;2.42;1.10;;;20.20;66.90;;;;;;5007264;28;20484;-31
2022/07/06 15:52:24;;;;;;;2.40;1.40;;;20.20;67.10;;;;;;5005513;28;20045;-30
2022/07/06 15:54:50;;;;;;;1.30;1.20;;;20.20;68.70;;;;;;5009372;28;20038;-30
2022/07/06 15:57:15;;;;;;;4.03;1.55;;;20.20;68.50;;;;;;5030081;28;20033;-31
2022/07/06 15:59:41;;;;;;;3.35;1.08;;;20.20;68.90;;;;;;5030368;28;20041;-31
2022/07/06 16:02:07;;;;;;;3.70;1.85;;;20.20;70.10;;;;;;5019247;28;20428;-29
2022/07/06 16:04:33;;;;;;;2.63;1.30;;;20.10;70.30;;;;;;5023722;28;20088;-30
2022/07/06 16:06:58;;;;;;;3.25;1.48;;;20.00;72.80;;;;;;5019255;28;20117;-30
2022/07/06 16:09:24;;;;;;;5.07;1.98;;;20.00;73.20;;;;;;5008247;28;20467;-31
2022/07/06 16:11:50;;;;;;;4.10;1.33;;;19.90;74.60;;;;;;5024275;28;20148;-28
2022/07/06 16:14:15;;;;;;;4.10;1.38;;;19.90;76.20;;;;;;5021095;28;20467;-27
2022/07/06 16:16:42;;;;;;;3.33;1.60;;;19.90;76.60;;;;;;5022490;28;20396;-30
2022/07/06 16:19:08;;;;;;;4.10;1.40;;;19.90;78.50;;;;;;5017005;28;20029;-29
2022/07/06 16:21:33;;;;;;;3.88;1.60;;;19.80;81.90;;;;;;5011005;28;20041;-30
2022/07/06 16:23:59;;;;;;;3.80;1.65;;;19.50;86.90;;;;;;4998901;28;20068;-31
2022/07/06 16:26:25;;;;;;;6.72;1.90;;;19.40;90.60;;;;;;5025466;28;20045;-30
2022/07/06 16:28:54;;;;;;;4.75;1.70;;;19.10;92.20;;;;;;5012059;28;20470;-29
2022/07/06 16:31:19;;;;;;;3.05;1.50;;;19.00;94.70;;;;;;4998745;28;20060;-31
2022/07/06 16:33:46;;;;;;;4.55;1.60;;;18.70;95.90;;;;;;4999746;28;20041;-28
2022/07/06 16:36:15;;;;;;;4.03;1.98;;;18.60;97.40;;;;;;5014039;28;20045;-29
2022/07/06 16:38:44;;;;;;;3.00;1.50;;;18.50;98.60;;;;;;5009065;28;20481;-30
2022/07/06 16:41:10;;;;;;;4.45;2.00;;;18.50;99.90;;;;;;5013765;28;20042;-28
2022/07/06 16:43:36;;;;;;;2.40;1.65;;;18.30;99.90;;;;;;5015777;28;20420;-29